Time,TemperatureF,DewpointF,PressureIn,WindDirection,WindDirectionDegrees,WindSpeedMPH,WindSpeedGustMPH,Humidity,HourlyPrecipIn,Conditions,Clouds,dailyrainin,SoftwareType,DateUTC
2013-04-22 00:01:00,42.1,32.4,30.61,SE,125,3.0,3.0,68,0.00,,,0.00,meteohub,2013-04-22 04:01:00,
2013-04-22 00:02:00,42.3,32.5,30.61,ESE,118,1.0,2.0,68,0.00,,,0.00,meteohub,2013-04-22 04:02:00,
2013-04-22 00:07:00,42.6,32.7,30.61,ESE,111,0.0,4.0,68,0.00,,,0.00,meteohub,2013-04-22 04:07:00,
2013-04-22 00:12:00,43.0,33.1,30.61,ESE,106,0.0,4.0,68,0.00,,,0.00,meteohub,2013-04-22 04:12:00,
2013-04-22 00:17:00,42.8,33.3,30.61,ESE,122,1.0,4.0,69,0.00,,,0.00,meteohub,2013-04-22 04:17:00,
2013-04-22 00:22:00,43.0,33.4,30.61,SE,132,1.0,4.0,69,0.00,,,0.00,meteohub,2013-04-22 04:22:00,
2013-04-22 00:27:00,43.0,33.4,30.60,East,97,1.0,4.0,69,0.00,,,0.00,meteohub,2013-04-22 04:27:00,
2013-04-22 00:32:00,43.2,33.6,30.60,East,83,0.0,6.0,69,0.00,,,0.00,meteohub,2013-04-22 04:32:00,
2013-04-22 00:37:00,43.0,33.8,30.60,East,89,0.0,6.0,70,0.00,,,0.00,meteohub,2013-04-22 04:37:00,
2013-04-22 00:42:00,42.6,33.4,30.60,East,89,0.0,6.0,70,0.00,,,0.00,meteohub,2013-04-22 04:42:00,
2013-04-22 00:47:00,42.4,33.6,30.60,East,90,0.0,1.0,71,0.00,,,0.00,meteohub,2013-04-22 04:47:00,
2013-04-22 00:52:00,42.3,33.8,30.60,SE,127,0.0,1.0,72,0.00,,,0.00,meteohub,2013-04-22 04:52:00,
2013-04-22 00:57:00,42.3,34.2,30.60,SE,127,0.0,1.0,73,0.00,,,0.00,meteohub,2013-04-22 04:57:00,
2013-04-22 01:02:00,41.9,33.8,30.60,SE,127,0.0,1.0,73,0.00,,,0.00,meteohub,2013-04-22 05:02:00,
2013-04-22 01:07:00,41.5,33.8,30.60,SE,127,0.0,1.0,74,0.00,,,0.00,meteohub,2013-04-22 05:07:00,
2013-04-22 01:12:00,41.2,33.4,30.60,SE,127,0.0,1.0,74,0.00,,,0.00,meteohub,2013-04-22 05:12:00,
2013-04-22 01:17:00,40.8,33.8,30.59,SE,127,0.0,1.0,76,0.00,,,0.00,meteohub,2013-04-22 05:17:00,
2013-04-22 01:22:00,40.6,33.6,30.59,SE,127,0.0,0.0,76,0.00,,,0.00,meteohub,2013-04-22 05:22:00,
2013-04-22 01:27:00,40.5,33.4,30.59,SE,135,0.0,0.0,76,0.00,,,0.00,meteohub,2013-04-22 05:27:00,
2013-04-22 01:32:00,40.6,34.0,30.59,SE,131,0.0,2.0,77,0.00,,,0.00,meteohub,2013-04-22 05:32:00,
2013-04-22 01:37:00,40.6,34.0,30.59,ESE,120,0.0,2.0,77,0.00,,,0.00,meteohub,2013-04-22 05:37:00,
2013-04-22 01:42:00,40.5,33.8,30.59,ESE,120,0.0,2.0,77,0.00,,,0.00,meteohub,2013-04-22 05:42:00,
2013-04-22 01:47:00,40.1,33.8,30.59,ESE,120,0.0,2.0,78,0.00,,,0.00,meteohub,2013-04-22 05:47:00,
2013-04-22 01:52:00,39.7,33.8,30.59,ESE,120,0.0,1.0,79,0.00,,,0.00,meteohub,2013-04-22 05:52:00,
2013-04-22 01:57:00,39.4,33.8,30.59,ESE,120,0.0,0.0,80,0.00,,,0.00,meteohub,2013-04-22 05:57:00,
2013-04-22 02:02:00,38.8,33.3,30.59,ESE,120,0.0,0.0,80,0.00,,,0.00,meteohub,2013-04-22 06:02:00,
2013-04-22 02:07:00,38.3,33.3,30.59,ESE,120,0.0,0.0,82,0.00,,,0.00,meteohub,2013-04-22 06:07:00,
2013-04-22 02:12:00,37.9,33.3,30.59,ESE,120,0.0,0.0,83,0.00,,,0.00,meteohub,2013-04-22 06:12:00,
2013-04-22 02:17:00,37.6,33.3,30.59,ESE,120,0.0,0.0,84,0.00,,,0.00,meteohub,2013-04-22 06:17:00,
2013-04-22 02:22:00,37.2,33.1,30.59,ESE,120,0.0,0.0,85,0.00,,,0.00,meteohub,2013-04-22 06:22:00,
2013-04-22 02:27:00,37.2,33.4,30.59,ESE,120,0.0,0.0,86,0.00,,,0.00,meteohub,2013-04-22 06:27:00,
2013-04-22 02:32:00,37.0,32.9,30.59,ESE,120,0.0,0.0,85,0.00,,,0.00,meteohub,2013-04-22 06:32:00,
2013-04-22 02:37:00,36.7,32.5,30.59,ESE,120,0.0,0.0,85,0.00,,,0.00,meteohub,2013-04-22 06:37:00,
2013-04-22 02:42:00,36.5,32.7,30.59,ESE,120,0.0,0.0,86,0.00,,,0.00,meteohub,2013-04-22 06:42:00,
2013-04-22 02:47:00,36.3,32.9,30.59,ESE,120,0.0,0.0,87,0.00,,,0.00,meteohub,2013-04-22 06:47:00,
2013-04-22 02:52:00,36.3,33.1,30.59,ESE,120,0.0,0.0,88,0.00,,,0.00,meteohub,2013-04-22 06:52:00,
2013-04-22 02:57:00,36.5,33.1,30.59,ESE,120,0.0,0.0,87,0.00,,,0.00,meteohub,2013-04-22 06:57:00,
2013-04-22 03:02:00,36.3,32.9,30.59,ESE,120,0.0,0.0,87,0.00,,,0.00,meteohub,2013-04-22 07:02:00,
2013-04-22 03:07:00,36.0,32.5,30.59,ESE,120,0.0,0.0,87,0.00,,,0.00,meteohub,2013-04-22 07:07:00,
2013-04-22 03:12:00,35.8,32.5,30.59,ESE,120,0.0,0.0,88,0.00,,,0.00,meteohub,2013-04-22 07:12:00,
2013-04-22 03:17:00,35.8,32.5,30.59,ESE,120,0.0,0.0,88,0.00,,,0.00,meteohub,2013-04-22 07:17:00,
2013-04-22 03:22:00,35.2,32.0,30.59,ESE,120,0.0,0.0,88,0.00,,,0.00,meteohub,2013-04-22 07:22:00,
2013-04-22 03:27:00,35.4,32.7,30.59,ESE,120,0.0,0.0,90,0.00,,,0.00,meteohub,2013-04-22 07:27:00,
2013-04-22 03:32:00,35.2,32.5,30.59,ESE,120,0.0,0.0,90,0.00,,,0.00,meteohub,2013-04-22 07:32:00,
2013-04-22 03:37:00,35.1,32.4,30.59,ESE,120,0.0,0.0,90,0.00,,,0.00,meteohub,2013-04-22 07:37:00,
2013-04-22 03:43:00,35.1,32.7,30.58,ESE,120,0.0,0.0,91,0.00,,,0.00,meteohub,2013-04-22 07:43:00,
2013-04-22 03:48:00,35.2,32.9,30.58,ESE,120,0.0,0.0,91,0.00,,,0.00,meteohub,2013-04-22 07:48:00,
2013-04-22 03:53:00,35.1,32.7,30.58,ESE,120,0.0,0.0,91,0.00,,,0.00,meteohub,2013-04-22 07:53:00,
2013-04-22 03:58:00,34.9,32.5,30.58,ESE,120,0.0,0.0,91,0.00,,,0.00,meteohub,2013-04-22 07:58:00,
2013-04-22 04:03:00,34.9,32.5,30.58,ESE,120,0.0,0.0,91,0.00,,,0.00,meteohub,2013-04-22 08:03:00,
2013-04-22 04:08:00,34.9,32.5,30.57,ESE,120,0.0,0.0,91,0.00,,,0.00,meteohub,2013-04-22 08:08:00,
2013-04-22 04:13:00,35.1,32.9,30.57,ESE,103,0.0,0.0,92,0.00,,,0.00,meteohub,2013-04-22 08:13:00,
2013-04-22 04:18:00,35.4,33.1,30.58,ENE,57,0.0,1.0,91,0.00,,,0.00,meteohub,2013-04-22 08:18:00,
2013-04-22 04:23:00,35.8,33.1,30.58,ENE,57,0.0,1.0,90,0.00,,,0.00,meteohub,2013-04-22 08:23:00,
2013-04-22 04:28:00,35.8,33.1,30.58,ENE,57,0.0,1.0,90,0.00,,,0.00,meteohub,2013-04-22 08:28:00,
2013-04-22 04:33:00,35.4,32.7,30.58,ENE,57,0.0,1.0,90,0.00,,,0.00,meteohub,2013-04-22 08:33:00,
2013-04-22 04:38:00,35.2,32.5,30.58,ENE,57,0.0,0.0,90,0.00,,,0.00,meteohub,2013-04-22 08:38:00,
2013-04-22 04:43:00,34.9,32.2,30.58,ENE,57,0.0,0.0,90,0.00,,,0.00,meteohub,2013-04-22 08:43:00,
2013-04-22 04:48:00,34.7,32.4,30.58,ENE,57,0.0,0.0,91,0.00,,,0.00,meteohub,2013-04-22 08:48:00,
2013-04-22 04:53:00,34.5,32.2,30.58,ENE,57,0.0,0.0,91,0.00,,,0.00,meteohub,2013-04-22 08:53:00,
2013-04-22 04:58:00,34.3,32.2,30.57,ENE,57,0.0,0.0,92,0.00,,,0.00,meteohub,2013-04-22 08:58:00,
2013-04-22 05:03:00,34.2,32.0,30.57,ENE,57,0.0,0.0,92,0.00,,,0.00,meteohub,2013-04-22 09:03:00,
2013-04-22 05:08:00,34.2,32.0,30.57,NE,56,0.0,0.0,92,0.00,,,0.00,meteohub,2013-04-22 09:08:00,
2013-04-22 05:13:00,34.0,31.8,30.57,NE,56,0.0,0.0,92,0.00,,,0.00,meteohub,2013-04-22 09:13:00,
2013-04-22 05:18:00,33.8,31.6,30.57,ENE,57,0.0,0.0,92,0.00,,,0.00,meteohub,2013-04-22 09:18:00,
2013-04-22 05:23:00,33.4,31.3,30.57,NE,56,0.0,0.0,92,0.00,,,0.00,meteohub,2013-04-22 09:23:00,
2013-04-22 05:28:00,33.3,31.1,30.57,ENE,58,0.0,0.0,92,0.00,,,0.00,meteohub,2013-04-22 09:28:00,
2013-04-22 05:33:00,33.3,31.1,30.57,ENE,57,0.0,0.0,92,0.00,,,0.00,meteohub,2013-04-22 09:33:00,
2013-04-22 05:38:00,33.3,31.5,30.57,ENE,57,0.0,0.0,93,0.00,,,0.00,meteohub,2013-04-22 09:38:00,
2013-04-22 05:43:00,33.1,31.3,30.57,ENE,57,0.0,0.0,93,0.00,,,0.00,meteohub,2013-04-22 09:43:00,
2013-04-22 05:48:00,33.1,31.3,30.57,ENE,57,0.0,0.0,93,0.00,,,0.00,meteohub,2013-04-22 09:48:00,
2013-04-22 05:53:00,32.7,30.9,30.57,NE,56,0.0,0.0,93,0.00,,,0.00,meteohub,2013-04-22 09:53:00,
2013-04-22 05:58:00,32.7,31.1,30.57,ENE,57,0.0,0.0,94,0.00,,,0.00,meteohub,2013-04-22 09:58:00,
2013-04-22 06:03:00,32.7,30.9,30.57,ENE,57,0.0,0.0,93,0.00,,,0.00,meteohub,2013-04-22 10:03:00,
2013-04-22 06:08:00,32.5,30.7,30.57,ENE,57,0.0,0.0,93,0.00,,,0.00,meteohub,2013-04-22 10:08:00,
2013-04-22 06:13:00,32.4,30.6,30.57,ENE,57,0.0,0.0,93,0.00,,,0.00,meteohub,2013-04-22 10:13:00,
2013-04-22 06:18:00,32.4,30.6,30.57,ENE,57,0.0,0.0,93,0.00,,,0.00,meteohub,2013-04-22 10:18:00,
2013-04-22 06:23:00,32.5,30.9,30.57,ENE,57,0.0,0.0,94,0.00,,,0.00,meteohub,2013-04-22 10:23:00,
2013-04-22 06:28:00,32.7,31.1,30.57,ENE,57,0.0,0.0,94,0.00,,,0.00,meteohub,2013-04-22 10:28:00,
2013-04-22 06:33:00,32.4,30.6,30.58,ENE,57,0.0,0.0,93,0.00,,,0.00,meteohub,2013-04-22 10:33:00,
2013-04-22 06:38:00,32.2,30.4,30.58,ENE,57,0.0,0.0,93,0.00,,,0.00,meteohub,2013-04-22 10:38:00,
2013-04-22 06:43:00,32.7,31.1,30.58,ENE,57,0.0,0.0,94,0.00,,,0.00,meteohub,2013-04-22 10:43:00,
2013-04-22 06:48:00,33.1,31.5,30.58,ENE,57,0.0,0.0,94,0.00,,,0.00,meteohub,2013-04-22 10:48:00,
2013-04-22 06:53:00,33.4,31.8,30.58,ENE,57,0.0,1.0,94,0.00,,,0.00,meteohub,2013-04-22 10:53:00,
2013-04-22 06:58:00,34.0,32.4,30.58,NE,46,0.0,1.0,94,0.00,,,0.00,meteohub,2013-04-22 10:58:00,
2013-04-22 07:03:00,34.5,32.9,30.58,NE,43,0.0,1.0,94,0.00,,,0.00,meteohub,2013-04-22 11:03:00,
2013-04-22 07:08:00,35.1,33.3,30.58,NNW,340,3.0,3.0,93,0.00,,,0.00,meteohub,2013-04-22 11:08:00,
2013-04-22 07:13:00,36.0,33.6,30.58,East,90,0.0,4.0,91,0.00,,,0.00,meteohub,2013-04-22 11:13:00,
2013-04-22 07:18:00,36.9,33.6,30.58,NNE,30,0.0,4.0,88,0.00,,,0.00,meteohub,2013-04-22 11:18:00,
2013-04-22 07:23:00,37.6,33.8,30.58,NNE,19,1.0,5.0,86,0.00,,,0.00,meteohub,2013-04-22 11:23:00,
2013-04-22 07:28:00,38.1,33.8,30.59,NNE,23,1.0,5.0,84,0.00,,,0.00,meteohub,2013-04-22 11:28:00,
2013-04-22 07:33:00,38.5,33.8,30.59,ESE,118,0.0,3.0,83,0.00,,,0.00,meteohub,2013-04-22 11:33:00,
2013-04-22 07:38:00,38.8,33.8,30.59,East,96,0.0,3.0,82,0.00,,,0.00,meteohub,2013-04-22 11:38:00,
2013-04-22 07:43:00,39.2,33.8,30.59,ESE,104,1.0,3.0,81,0.00,,,0.00,meteohub,2013-04-22 11:43:00,
2013-04-22 07:48:00,39.4,34.0,30.59,ENE,77,1.0,3.0,81,0.00,,,0.00,meteohub,2013-04-22 11:48:00,
2013-04-22 07:53:00,39.7,34.2,30.59,East,79,2.0,3.0,80,0.00,,,0.00,meteohub,2013-04-22 11:53:00,
2013-04-22 07:58:00,40.1,34.5,30.59,ENE,65,2.0,3.0,80,0.00,,,0.00,meteohub,2013-04-22 11:58:00,
2013-04-22 08:03:00,40.5,34.7,30.59,ESE,102,0.0,5.0,80,0.00,,,0.00,meteohub,2013-04-22 12:03:00,
2013-04-22 08:08:00,40.6,34.7,30.59,SE,125,2.0,5.0,79,0.00,,,0.00,meteohub,2013-04-22 12:08:00,
2013-04-22 08:13:00,41.4,35.1,30.59,ENE,72,0.0,5.0,78,0.00,,,0.00,meteohub,2013-04-22 12:13:00,
2013-04-22 08:18:00,42.1,35.8,30.59,East,85,2.0,3.0,78,0.00,,,0.00,meteohub,2013-04-22 12:18:00,
2013-04-22 08:23:00,42.3,35.2,30.59,SE,135,0.0,4.0,76,0.00,,,0.00,meteohub,2013-04-22 12:23:00,
2013-04-22 08:28:00,43.0,36.0,30.59,East,90,1.0,4.0,76,0.00,,,0.00,meteohub,2013-04-22 12:28:00,
2013-04-22 08:33:00,43.0,35.6,30.59,North,9,6.0,6.0,75,0.00,,,0.00,meteohub,2013-04-22 12:33:00,
2013-04-22 08:38:00,42.8,35.8,30.58,East,98,2.0,10.0,76,0.00,,,0.00,meteohub,2013-04-22 12:38:00,
2013-04-22 08:43:00,43.0,35.6,30.59,ENE,70,1.0,12.0,75,0.00,,,0.00,meteohub,2013-04-22 12:43:00,
2013-04-22 08:48:00,43.9,36.9,30.58,North,354,1.0,12.0,76,0.00,,,0.00,meteohub,2013-04-22 12:48:00,
2013-04-22 08:53:00,44.2,36.5,30.58,North,8,4.0,12.0,74,0.00,,,0.00,meteohub,2013-04-22 12:53:00,
2013-04-22 08:58:00,44.2,35.8,30.59,SE,125,2.0,7.0,72,0.00,,,0.00,meteohub,2013-04-22 12:58:00,
2013-04-22 09:03:00,44.2,35.8,30.59,ESE,123,3.0,12.0,72,0.00,,,0.00,meteohub,2013-04-22 13:03:00,
2013-04-22 09:08:00,44.6,36.5,30.59,ESE,120,1.0,12.0,73,0.00,,,0.00,meteohub,2013-04-22 13:08:00,
2013-04-22 09:13:00,44.8,36.0,30.59,East,79,4.0,12.0,71,0.00,,,0.00,meteohub,2013-04-22 13:13:00,
2013-04-22 09:18:00,44.8,35.2,30.59,North,352,2.0,10.0,69,0.00,,,0.00,meteohub,2013-04-22 13:18:00,
2013-04-22 09:23:00,44.4,34.9,30.59,ESE,118,2.0,10.0,69,0.00,,,0.00,meteohub,2013-04-22 13:23:00,
2013-04-22 09:28:00,44.4,34.9,30.59,ESE,107,6.0,10.0,69,0.00,,,0.00,meteohub,2013-04-22 13:28:00,
2013-04-22 09:33:00,44.4,34.5,30.59,ESE,109,3.0,10.0,68,0.00,,,0.00,meteohub,2013-04-22 13:33:00,
2013-04-22 09:38:00,44.6,35.4,30.59,SE,132,0.0,10.0,70,0.00,,,0.00,meteohub,2013-04-22 13:38:00,
2013-04-22 09:43:00,45.0,35.4,30.59,ESE,108,0.0,10.0,69,0.00,,,0.00,meteohub,2013-04-22 13:43:00,
2013-04-22 09:48:00,45.1,35.2,30.59,East,98,3.0,8.0,68,0.00,,,0.00,meteohub,2013-04-22 13:48:00,
2013-04-22 09:53:00,45.1,35.2,30.59,ENE,60,0.0,7.0,68,0.00,,,0.00,meteohub,2013-04-22 13:53:00,
2013-04-22 09:58:00,45.9,35.1,30.59,ESE,105,0.0,7.0,66,0.00,,,0.00,meteohub,2013-04-22 13:58:00,
2013-04-22 10:03:00,46.2,36.0,30.59,ESE,102,1.0,8.0,67,0.00,,,0.00,meteohub,2013-04-22 14:03:00,
2013-04-22 10:08:00,46.6,35.1,30.58,East,82,11.0,11.0,64,0.00,,,0.00,meteohub,2013-04-22 14:08:00,
2013-04-22 10:13:00,46.8,34.9,30.58,SE,129,1.0,13.0,63,0.00,,,0.00,meteohub,2013-04-22 14:13:00,
2013-04-22 10:18:00,47.1,34.7,30.58,ENE,72,6.0,13.0,62,0.00,,,0.00,meteohub,2013-04-22 14:18:00,
2013-04-22 10:23:00,46.6,34.7,30.58,NE,56,4.0,13.0,63,0.00,,,0.00,meteohub,2013-04-22 14:23:00,
2013-04-22 10:28:00,46.9,35.1,30.58,East,90,6.0,11.0,63,0.00,,,0.00,meteohub,2013-04-22 14:28:00,
2013-04-22 10:33:00,46.6,34.7,30.57,East,83,3.0,11.0,63,0.00,,,0.00,meteohub,2013-04-22 14:33:00,
2013-04-22 10:38:00,46.8,35.2,30.57,SE,132,1.0,8.0,64,0.00,,,0.00,meteohub,2013-04-22 14:38:00,
2013-04-22 10:43:00,46.9,35.1,30.57,NE,56,6.0,7.0,63,0.00,,,0.00,meteohub,2013-04-22 14:43:00,
2013-04-22 10:48:00,46.9,35.1,30.57,SE,127,1.0,12.0,63,0.00,,,0.00,meteohub,2013-04-22 14:48:00,
2013-04-22 10:53:00,47.7,34.5,30.58,East,99,3.0,12.0,60,0.00,,,0.00,meteohub,2013-04-22 14:53:00,
2013-04-22 10:58:00,47.8,34.7,30.57,ENE,68,3.0,13.0,60,0.00,,,0.00,meteohub,2013-04-22 14:58:00,
2013-04-22 11:03:00,48.0,35.6,30.57,SE,131,0.0,13.0,62,0.00,,,0.00,meteohub,2013-04-22 15:03:00,
2013-04-22 11:08:00,48.6,34.9,30.58,ESE,109,5.0,11.0,59,0.00,,,0.00,meteohub,2013-04-22 15:08:00,
2013-04-22 11:13:00,48.9,36.1,30.58,East,89,8.0,10.0,61,0.00,,,0.00,meteohub,2013-04-22 15:13:00,
2013-04-22 11:18:00,48.9,35.6,30.57,ESE,105,1.0,12.0,60,0.00,,,0.00,meteohub,2013-04-22 15:18:00,
2013-04-22 11:23:00,48.6,34.9,30.57,ESE,104,2.0,12.0,59,0.00,,,0.00,meteohub,2013-04-22 15:23:00,
2013-04-22 11:28:00,48.7,34.7,30.57,ESE,117,5.0,12.0,58,0.00,,,0.00,meteohub,2013-04-22 15:28:00,
2013-04-22 11:33:00,48.2,34.2,30.57,East,89,2.0,12.0,58,0.00,,,0.00,meteohub,2013-04-22 15:33:00,
2013-04-22 11:38:00,48.7,35.1,30.56,SE,134,6.0,12.0,59,0.00,,,0.00,meteohub,2013-04-22 15:38:00,
2013-04-22 11:43:00,48.7,35.4,30.56,ENE,61,3.0,12.0,60,0.00,,,0.00,meteohub,2013-04-22 15:43:00,
2013-04-22 11:48:00,49.6,35.4,30.56,ENE,78,11.0,12.0,58,0.00,,,0.00,meteohub,2013-04-22 15:48:00,
2013-04-22 11:53:00,50.2,35.1,30.56,NE,53,7.0,13.0,56,0.00,,,0.00,meteohub,2013-04-22 15:53:00,
2013-04-22 11:59:00,50.2,36.0,30.56,NE,54,4.0,13.0,58,0.00,,,0.00,meteohub,2013-04-22 15:59:00,
2013-04-22 12:04:00,49.3,35.1,30.56,SE,125,5.0,13.0,58,0.00,,,0.00,meteohub,2013-04-22 16:04:00,
2013-04-22 12:09:00,49.5,34.9,30.56,ESE,108,4.0,11.0,57,0.00,,,0.00,meteohub,2013-04-22 16:09:00,
2013-04-22 12:14:00,49.3,35.1,30.55,WSW,251,2.0,11.0,58,0.00,,,0.00,meteohub,2013-04-22 16:14:00,
2013-04-22 12:19:00,49.6,35.4,30.55,ENE,65,2.0,11.0,58,0.00,,,0.00,meteohub,2013-04-22 16:19:00,
2013-04-22 12:24:00,49.8,35.2,30.55,ESE,111,7.0,11.0,57,0.00,,,0.00,meteohub,2013-04-22 16:24:00,
2013-04-22 12:29:00,50.2,35.6,30.55,ENE,60,2.0,9.0,57,0.00,,,0.00,meteohub,2013-04-22 16:29:00,
2013-04-22 12:34:00,50.5,35.4,30.55,NNE,30,4.0,9.0,56,0.00,,,0.00,meteohub,2013-04-22 16:34:00,
2013-04-22 12:39:00,50.4,35.2,30.54,ESE,121,1.0,10.0,56,0.00,,,0.00,meteohub,2013-04-22 16:39:00,
2013-04-22 12:44:00,50.7,35.6,30.54,ESE,115,8.0,10.0,56,0.00,,,0.00,meteohub,2013-04-22 16:44:00,
2013-04-22 12:49:00,50.5,35.1,30.54,SE,142,1.0,10.0,55,0.00,,,0.00,meteohub,2013-04-22 16:49:00,
2013-04-22 12:54:00,50.7,35.1,30.54,East,95,4.0,11.0,55,0.00,,,0.00,meteohub,2013-04-22 16:54:00,
2013-04-22 12:59:00,51.1,36.3,30.54,North,359,4.0,11.0,57,0.00,,,0.00,meteohub,2013-04-22 16:59:00,
2013-04-22 13:04:00,51.1,35.1,30.54,North,354,3.0,11.0,54,0.00,,,0.00,meteohub,2013-04-22 17:04:00,
2013-04-22 13:09:00,50.7,34.7,30.53,ESE,115,1.0,10.0,54,0.00,,,0.00,meteohub,2013-04-22 17:09:00,
2013-04-22 13:14:00,50.7,35.1,30.53,NNE,31,5.0,14.0,55,0.00,,,0.00,meteohub,2013-04-22 17:14:00,
2013-04-22 13:19:00,51.3,35.2,30.53,SE,129,1.0,14.0,54,0.00,,,0.00,meteohub,2013-04-22 17:19:00,
2013-04-22 13:24:00,52.2,36.5,30.52,East,94,2.0,14.0,55,0.00,,,0.00,meteohub,2013-04-22 17:24:00,
2013-04-22 13:29:00,52.0,34.3,30.52,ESE,110,4.0,12.0,51,0.00,,,0.00,meteohub,2013-04-22 17:29:00,
2013-04-22 13:34:00,51.6,35.1,30.52,SE,139,2.0,12.0,53,0.00,,,0.00,meteohub,2013-04-22 17:34:00,
2013-04-22 13:39:00,52.0,34.3,30.52,East,85,4.0,11.0,51,0.00,,,0.00,meteohub,2013-04-22 17:39:00,
2013-04-22 13:44:00,52.0,35.8,30.52,SE,131,1.0,11.0,54,0.00,,,0.00,meteohub,2013-04-22 17:44:00,
2013-04-22 13:49:00,52.0,34.9,30.52,ESE,105,5.0,8.0,52,0.00,,,0.00,meteohub,2013-04-22 17:49:00,
2013-04-22 13:54:00,52.2,36.0,30.52,ESE,103,4.0,10.0,54,0.00,,,0.00,meteohub,2013-04-22 17:54:00,
2013-04-22 13:59:00,52.2,36.0,30.52,East,86,0.0,10.0,54,0.00,,,0.00,meteohub,2013-04-22 17:59:00,
2013-04-22 14:04:00,52.9,36.1,30.51,ESE,113,2.0,11.0,53,0.00,,,0.00,meteohub,2013-04-22 18:04:00,
2013-04-22 14:09:00,52.9,35.8,30.51,ENE,78,2.0,11.0,52,0.00,,,0.00,meteohub,2013-04-22 18:09:00,
2013-04-22 14:14:00,52.5,36.0,30.51,SE,129,4.0,13.0,53,0.00,,,0.00,meteohub,2013-04-22 18:14:00,
2013-04-22 14:19:00,52.5,35.4,30.51,ENE,67,4.0,13.0,52,0.00,,,0.00,meteohub,2013-04-22 18:19:00,
2013-04-22 14:24:00,52.5,34.9,30.51,East,86,4.0,13.0,51,0.00,,,0.00,meteohub,2013-04-22 18:24:00,
2013-04-22 14:29:00,52.2,35.1,30.51,ESE,122,4.0,12.0,52,0.00,,,0.00,meteohub,2013-04-22 18:29:00,
2013-04-22 14:34:00,52.0,34.9,30.51,NE,39,4.0,12.0,52,0.00,,,0.00,meteohub,2013-04-22 18:34:00,
2013-04-22 14:39:00,52.2,35.1,30.50,ENE,68,8.0,12.0,52,0.00,,,0.00,meteohub,2013-04-22 18:39:00,
2013-04-22 14:44:00,52.5,36.3,30.50,NNW,330,4.0,12.0,54,0.00,,,0.00,meteohub,2013-04-22 18:44:00,
2013-04-22 14:49:00,53.2,37.0,30.50,ENE,76,2.0,10.0,54,0.00,,,0.00,meteohub,2013-04-22 18:49:00,
2013-04-22 14:54:00,53.2,36.5,30.50,ESE,113,4.0,10.0,53,0.00,,,0.00,meteohub,2013-04-22 18:54:00,
2013-04-22 14:59:00,53.4,36.7,30.49,NE,46,3.0,9.0,53,0.00,,,0.00,meteohub,2013-04-22 18:59:00,
2013-04-22 15:04:00,54.5,36.3,30.49,East,96,3.0,8.0,50,0.00,,,0.00,meteohub,2013-04-22 19:04:00,
2013-04-22 15:09:00,54.5,36.7,30.49,NE,56,10.0,10.0,51,0.00,,,0.00,meteohub,2013-04-22 19:09:00,
2013-04-22 15:14:00,53.8,36.5,30.48,ESE,105,3.0,6.0,52,0.00,,,0.00,meteohub,2013-04-22 19:14:00,
2013-04-22 15:19:00,54.1,36.3,30.48,ESE,105,5.0,10.0,51,0.00,,,0.00,meteohub,2013-04-22 19:19:00,
2013-04-22 15:24:00,53.4,36.3,30.48,SE,134,6.0,10.0,52,0.00,,,0.00,meteohub,2013-04-22 19:24:00,
2013-04-22 15:29:00,53.2,36.1,30.48,East,88,5.0,11.0,52,0.00,,,0.00,meteohub,2013-04-22 19:29:00,
2013-04-22 15:34:00,53.4,35.8,30.48,ESE,110,8.0,11.0,51,0.00,,,0.00,meteohub,2013-04-22 19:34:00,
2013-04-22 15:39:00,53.1,35.4,30.48,East,91,1.0,11.0,51,0.00,,,0.00,meteohub,2013-04-22 19:39:00,
2013-04-22 15:44:00,53.4,36.3,30.47,NE,41,6.0,11.0,52,0.00,,,0.00,meteohub,2013-04-22 19:44:00,
2013-04-22 15:49:00,53.8,35.6,30.47,ESE,105,3.0,15.0,50,0.00,,,0.00,meteohub,2013-04-22 19:49:00,
2013-04-22 15:54:00,54.1,36.3,30.46,SE,135,1.0,15.0,51,0.00,,,0.00,meteohub,2013-04-22 19:54:00,
2013-04-22 15:59:00,54.3,37.6,30.46,NE,49,4.0,12.0,53,0.00,,,0.00,meteohub,2013-04-22 19:59:00,
2013-04-22 16:04:00,54.5,36.7,30.46,ENE,65,8.0,9.0,51,0.00,,,0.00,meteohub,2013-04-22 20:04:00,
2013-04-22 16:09:00,54.1,36.3,30.45,ESE,115,2.0,14.0,51,0.00,,,0.00,meteohub,2013-04-22 20:09:00,
2013-04-22 16:14:00,54.1,36.9,30.45,East,96,1.0,14.0,52,0.00,,,0.00,meteohub,2013-04-22 20:14:00,
2013-04-22 16:19:00,54.1,36.0,30.45,ESE,112,2.0,14.0,50,0.00,,,0.00,meteohub,2013-04-22 20:19:00,
2013-04-22 16:24:00,54.0,36.7,30.45,North,5,3.0,9.0,52,0.00,,,0.00,meteohub,2013-04-22 20:24:00,
2013-04-22 16:29:00,54.0,35.8,30.45,NNE,31,2.0,8.0,50,0.00,,,0.00,meteohub,2013-04-22 20:29:00,
2013-04-22 16:34:00,54.0,36.3,30.45,East,94,4.0,10.0,51,0.00,,,0.00,meteohub,2013-04-22 20:34:00,
2013-04-22 16:39:00,53.8,36.5,30.45,East,87,3.0,13.0,52,0.00,,,0.00,meteohub,2013-04-22 20:39:00,
2013-04-22 16:44:00,54.0,36.7,30.45,ESE,115,5.0,13.0,52,0.00,,,0.00,meteohub,2013-04-22 20:44:00,
2013-04-22 16:49:00,54.1,36.3,30.45,East,91,2.0,13.0,51,0.00,,,0.00,meteohub,2013-04-22 20:49:00,
2013-04-22 16:54:00,54.5,37.2,30.45,ENE,75,6.0,9.0,52,0.00,,,0.00,meteohub,2013-04-22 20:54:00,
2013-04-22 16:59:00,54.0,36.7,30.45,ENE,75,10.0,10.0,52,0.00,,,0.00,meteohub,2013-04-22 20:59:00,
2013-04-22 17:04:00,54.0,36.7,30.45,East,89,2.0,10.0,52,0.00,,,0.00,meteohub,2013-04-22 21:04:00,
2013-04-22 17:09:00,54.7,37.4,30.44,ESE,110,5.0,10.0,52,0.00,,,0.00,meteohub,2013-04-22 21:09:00,
2013-04-22 17:14:00,54.3,37.0,30.44,East,82,1.0,10.0,52,0.00,,,0.00,meteohub,2013-04-22 21:14:00,
2013-04-22 17:19:00,54.9,37.6,30.44,ENE,60,3.0,10.0,52,0.00,,,0.00,meteohub,2013-04-22 21:19:00,
2013-04-22 17:24:00,54.1,36.3,30.44,ENE,75,8.0,13.0,51,0.00,,,0.00,meteohub,2013-04-22 21:24:00,
2013-04-22 17:29:00,53.6,36.3,30.44,East,94,3.0,13.0,52,0.00,,,0.00,meteohub,2013-04-22 21:29:00,
2013-04-22 18:02:00,53.8,37.6,30.44,SE,129,6.0,10.0,54,0.00,,,0.00,meteohub,2013-04-22 22:02:00,
2013-04-22 18:07:00,53.6,37.8,30.43,ESE,117,4.0,10.0,55,0.00,,,0.00,meteohub,2013-04-22 22:07:00,
2013-04-22 18:12:00,53.8,37.6,30.43,NE,51,3.0,10.0,54,0.00,,,0.00,meteohub,2013-04-22 22:12:00,
2013-04-22 18:17:00,54.0,36.7,30.43,ENE,72,4.0,10.0,52,0.00,,,0.00,meteohub,2013-04-22 22:17:00,
2013-04-22 18:22:00,53.8,36.1,30.43,East,90,4.0,10.0,51,0.00,,,0.00,meteohub,2013-04-22 22:22:00,
2013-04-22 18:27:00,53.4,36.7,30.43,NW,325,2.0,9.0,53,0.00,,,0.00,meteohub,2013-04-22 22:27:00,
2013-04-22 18:32:00,53.8,37.0,30.43,ESE,104,3.0,9.0,53,0.00,,,0.00,meteohub,2013-04-22 22:32:00,
2013-04-22 18:37:00,53.8,37.0,30.43,ESE,115,3.0,9.0,53,0.00,,,0.00,meteohub,2013-04-22 22:37:00,
2013-04-22 18:42:00,53.4,37.2,30.43,ESE,103,3.0,6.0,54,0.00,,,0.00,meteohub,2013-04-22 22:42:00,
2013-04-22 18:47:00,53.2,36.5,30.43,East,97,4.0,8.0,53,0.00,,,0.00,meteohub,2013-04-22 22:47:00,
2013-04-22 18:52:00,52.5,36.3,30.43,SE,134,6.0,10.0,54,0.00,,,0.00,meteohub,2013-04-22 22:52:00,
2013-04-22 18:57:00,52.3,36.7,30.43,ENE,75,0.0,11.0,55,0.00,,,0.00,meteohub,2013-04-22 22:57:00,
2013-04-22 19:02:00,52.2,36.5,30.43,ESE,117,4.0,11.0,55,0.00,,,0.00,meteohub,2013-04-22 23:02:00,
2013-04-22 19:07:00,52.0,35.8,30.43,SE,134,5.0,11.0,54,0.00,,,0.00,meteohub,2013-04-22 23:07:00,
2013-04-22 19:12:00,51.6,36.0,30.43,SE,132,3.0,9.0,55,0.00,,,0.00,meteohub,2013-04-22 23:12:00,
2013-04-22 19:17:00,51.6,36.5,30.44,NNE,18,0.0,9.0,56,0.00,,,0.00,meteohub,2013-04-22 23:17:00,
2013-04-22 19:22:00,51.6,36.0,30.43,ENE,71,3.0,9.0,55,0.00,,,0.00,meteohub,2013-04-22 23:22:00,
2013-04-22 19:27:00,51.4,36.3,30.43,SSE,153,1.0,6.0,56,0.00,,,0.00,meteohub,2013-04-22 23:27:00,
2013-04-22 19:32:00,51.4,36.7,30.44,East,85,0.0,6.0,57,0.00,,,0.00,meteohub,2013-04-22 23:32:00,
2013-04-22 19:37:00,51.3,36.1,30.44,ESE,109,1.0,6.0,56,0.00,,,0.00,meteohub,2013-04-22 23:37:00,
2013-04-22 19:42:00,51.1,36.3,30.44,ESE,119,1.0,6.0,57,0.00,,,0.00,meteohub,2013-04-22 23:42:00,
2013-04-22 19:47:00,51.1,36.3,30.44,East,91,0.0,6.0,57,0.00,,,0.00,meteohub,2013-04-22 23:47:00,
2013-04-22 19:52:00,50.9,36.7,30.44,ENE,70,2.0,4.0,58,0.00,,,0.00,meteohub,2013-04-22 23:52:00,
2013-04-22 19:57:00,50.7,36.0,30.44,ESE,116,1.0,6.0,57,0.00,,,0.00,meteohub,2013-04-22 23:57:00,
2013-04-22 20:02:00,50.5,36.0,30.44,ESE,118,3.0,7.0,57,0.00,,,0.00,meteohub,2013-04-23 00:02:00,
2013-04-22 20:07:00,50.5,36.3,30.44,East,93,2.0,7.0,58,0.00,,,0.00,meteohub,2013-04-23 00:07:00,
2013-04-22 20:12:00,50.4,36.5,30.44,ESE,113,3.0,7.0,59,0.00,,,0.00,meteohub,2013-04-23 00:12:00,
2013-04-22 20:17:00,50.4,36.5,30.44,East,80,4.0,7.0,59,0.00,,,0.00,meteohub,2013-04-23 00:17:00,
2013-04-22 20:22:00,50.4,36.5,30.44,SE,127,1.0,6.0,59,0.00,,,0.00,meteohub,2013-04-23 00:22:00,
2013-04-22 20:27:00,50.4,36.5,30.44,ESE,115,1.0,5.0,59,0.00,,,0.00,meteohub,2013-04-23 00:27:00,
2013-04-22 20:32:00,50.2,36.9,30.45,East,92,3.0,7.0,60,0.00,,,0.00,meteohub,2013-04-23 00:32:00,
2013-04-22 20:38:00,50.2,36.9,30.45,ENE,77,3.0,8.0,60,0.00,,,0.00,meteohub,2013-04-23 00:38:00,
2013-04-22 20:43:00,50.2,36.9,30.45,East,82,4.0,8.0,60,0.00,,,0.00,meteohub,2013-04-23 00:43:00,
2013-04-22 20:48:00,50.2,36.9,30.45,SE,125,1.0,8.0,60,0.00,,,0.00,meteohub,2013-04-23 00:48:00,
2013-04-22 20:53:00,50.0,37.0,30.45,SE,125,1.0,6.0,61,0.00,,,0.00,meteohub,2013-04-23 00:53:00,
2013-04-22 20:58:00,49.8,36.5,30.45,ESE,121,2.0,6.0,60,0.00,,,0.00,meteohub,2013-04-23 00:58:00,
2013-04-22 21:03:00,49.8,36.5,30.45,ENE,65,3.0,6.0,60,0.00,,,0.00,meteohub,2013-04-23 01:03:00,
2013-04-22 21:08:00,49.6,36.3,30.45,SE,135,2.0,6.0,60,0.00,,,0.00,meteohub,2013-04-23 01:08:00,
2013-04-22 21:13:00,49.5,36.5,30.45,ESE,107,2.0,8.0,61,0.00,,,0.00,meteohub,2013-04-23 01:13:00,
2013-04-22 21:18:00,49.5,36.5,30.45,ESE,114,1.0,9.0,61,0.00,,,0.00,meteohub,2013-04-23 01:18:00,
2013-04-22 21:23:00,49.5,36.5,30.45,ENE,69,4.0,9.0,61,0.00,,,0.00,meteohub,2013-04-23 01:23:00,
2013-04-22 21:28:00,49.3,36.3,30.45,ESE,123,3.0,9.0,61,0.00,,,0.00,meteohub,2013-04-23 01:28:00,
2013-04-22 21:33:00,49.3,36.3,30.45,ENE,70,4.0,6.0,61,0.00,,,0.00,meteohub,2013-04-23 01:33:00,
2013-04-22 21:38:00,49.1,36.3,30.45,NE,49,2.0,7.0,61,0.00,,,0.00,meteohub,2013-04-23 01:38:00,
2013-04-22 21:43:00,48.9,36.5,30.45,ESE,106,1.0,8.0,62,0.00,,,0.00,meteohub,2013-04-23 01:43:00,
2013-04-22 21:48:00,48.9,36.5,30.45,ENE,60,1.0,8.0,62,0.00,,,0.00,meteohub,2013-04-23 01:48:00,
2013-04-22 21:53:00,48.7,36.3,30.45,East,82,0.0,8.0,62,0.00,,,0.00,meteohub,2013-04-23 01:53:00,
2013-04-22 21:58:00,48.7,36.3,30.45,ESE,110,0.0,7.0,62,0.00,,,0.00,meteohub,2013-04-23 01:58:00,
2013-04-22 22:03:00,48.6,36.5,30.45,ESE,103,4.0,5.0,63,0.00,,,0.00,meteohub,2013-04-23 02:03:00,
2013-04-22 22:08:00,48.6,36.5,30.45,East,101,1.0,6.0,63,0.00,,,0.00,meteohub,2013-04-23 02:08:00,
2013-04-22 22:13:00,48.6,36.5,30.45,East,96,1.0,6.0,63,0.00,,,0.00,meteohub,2013-04-23 02:13:00,
2013-04-22 22:18:00,48.6,36.5,30.45,East,98,1.0,6.0,63,0.00,,,0.00,meteohub,2013-04-23 02:18:00,
2013-04-22 22:23:00,48.6,36.5,30.45,ESE,109,2.0,9.0,63,0.00,,,0.00,meteohub,2013-04-23 02:23:00,
2013-04-22 22:28:00,48.6,36.5,30.45,ENE,75,4.0,9.0,63,0.00,,,0.00,meteohub,2013-04-23 02:28:00,
2013-04-22 22:33:00,48.6,36.5,30.45,ESE,117,2.0,9.0,63,0.00,,,0.00,meteohub,2013-04-23 02:33:00,
2013-04-22 22:38:00,48.6,36.1,30.45,SE,132,0.0,7.0,62,0.00,,,0.00,meteohub,2013-04-23 02:38:00,
2013-04-22 22:43:00,48.6,36.5,30.45,ESE,119,0.0,7.0,63,0.00,,,0.00,meteohub,2013-04-23 02:43:00,
2013-04-22 22:48:00,48.6,36.5,30.45,ESE,118,0.0,7.0,63,0.00,,,0.00,meteohub,2013-04-23 02:48:00,
2013-04-22 22:53:00,48.6,36.5,30.44,ESE,111,1.0,7.0,63,0.00,,,0.00,meteohub,2013-04-23 02:53:00,
2013-04-22 22:58:00,48.6,36.5,30.44,SE,127,3.0,5.0,63,0.00,,,0.00,meteohub,2013-04-23 02:58:00,
2013-04-22 23:03:00,48.4,36.3,30.44,ESE,110,1.0,6.0,63,0.00,,,0.00,meteohub,2013-04-23 03:03:00,
2013-04-22 23:08:00,48.4,36.3,30.44,ESE,111,3.0,6.0,63,0.00,,,0.00,meteohub,2013-04-23 03:08:00,
2013-04-22 23:13:00,48.4,36.3,30.44,SE,135,1.0,6.0,63,0.00,,,0.00,meteohub,2013-04-23 03:13:00,
2013-04-22 23:18:00,48.2,36.1,30.44,ENE,66,7.0,7.0,63,0.00,,,0.00,meteohub,2013-04-23 03:18:00,
2013-04-22 23:23:00,48.0,36.5,30.44,ENE,76,1.0,7.0,64,0.00,,,0.00,meteohub,2013-04-23 03:23:00,
2013-04-22 23:28:00,48.0,36.5,30.44,ESE,116,4.0,7.0,64,0.00,,,0.00,meteohub,2013-04-23 03:28:00,
2013-04-22 23:33:00,48.0,36.5,30.44,ENE,70,5.0,7.0,64,0.00,,,0.00,meteohub,2013-04-23 03:33:00,
2013-04-22 23:38:00,47.8,36.3,30.44,ESE,116,3.0,6.0,64,0.00,,,0.00,meteohub,2013-04-23 03:38:00,
2013-04-22 23:43:00,47.8,36.7,30.44,North,1,0.0,5.0,65,0.00,,,0.00,meteohub,2013-04-23 03:43:00,
2013-04-22 23:48:00,47.8,36.3,30.44,East,87,1.0,5.0,64,0.00,,,0.00,meteohub,2013-04-23 03:48:00,
2013-04-22 23:53:00,47.7,36.1,30.43,ENE,65,3.0,5.0,64,0.00,,,0.00,meteohub,2013-04-23 03:53:00,
2013-04-22 23:58:00,47.7,36.5,30.44,NE,53,1.0,4.0,65,0.00,,,0.00,meteohub,2013-04-23 03:58:00,